createdAt,value
2023-01-29T00:00:19.370Z,15.52
2023-01-29T00:03:22.390Z,10.00
2023-01-29T00:06:24.945Z,17.83
2023-01-29T00:09:29.001Z,22.85
2023-01-29T00:12:31.709Z,18.10
2023-01-29T00:15:34.661Z,20.02
2023-01-29T00:18:40.721Z,16.73
2023-01-29T00:21:43.607Z,17.33
2023-01-29T00:24:46.155Z,15.25
2023-01-29T00:27:49.143Z,18.75
2023-01-29T00:30:51.790Z,14.77
2023-01-29T00:33:55.047Z,18.67
2023-01-29T00:37:04.733Z,22.70
2023-01-29T00:40:09.771Z,17.37
2023-01-29T00:43:30.992Z,18.77
2023-01-29T00:46:34.071Z,15.65
2023-01-29T00:49:36.708Z,18.15
2023-01-29T00:52:42.907Z,21.60
2023-01-29T00:55:45.595Z,13.07
2023-01-29T00:58:48.424Z,13.82
2023-01-29T01:02:09.343Z,20.75
2023-01-29T01:05:17.817Z,17.92
2023-01-29T01:11:42.039Z,9.98
2023-01-29T01:14:44.824Z,11.57
2023-01-29T01:17:55.829Z,15.07
2023-01-29T01:20:59.650Z,12.00
2023-01-29T01:24:05.847Z,9.60
2023-01-29T01:27:08.419Z,10.90
2023-01-29T01:30:15.045Z,16.83
2023-01-29T01:33:17.845Z,12.23
2023-01-29T01:36:21.424Z,12.55
2023-01-29T01:39:25.163Z,15.02
2023-01-29T01:42:32.534Z,17.73
2023-01-29T01:45:36.309Z,15.75
2023-01-29T01:48:39.478Z,12.23
2023-01-29T01:52:01.087Z,18.75
2023-01-29T01:55:04.750Z,18.87
2023-01-29T01:58:12.346Z,17.15
2023-01-29T02:01:15.433Z,11.98
2023-01-29T02:04:41.080Z,12.52
2023-01-29T02:08:06.097Z,16.12
2023-01-29T02:11:09.319Z,19.42
2023-01-29T02:14:12.548Z,13.60
2023-01-29T02:17:18.365Z,20.45
2023-01-29T02:20:26.767Z,14.73
2023-01-29T02:24:07.481Z,18.83
2023-01-29T02:27:40.078Z,15.18
2023-01-29T02:31:21.474Z,11.90
2023-01-29T02:34:54.858Z,9.93
2023-01-29T02:37:57.427Z,13.32
2023-01-29T02:41:29.050Z,14.57
2023-01-29T02:44:40.336Z,18.00
2023-01-29T02:47:52.714Z,9.10
2023-01-29T02:51:01.463Z,11.80
2023-01-29T02:57:17.176Z,12.37
2023-01-29T03:00:27.957Z,14.15
2023-01-29T03:03:36.841Z,11.02
2023-01-29T03:06:45.115Z,13.48
2023-01-29T03:09:53.775Z,11.18
2023-01-29T03:13:37.209Z,9.82
2023-01-29T03:16:46.254Z,11.07
2023-01-29T03:19:51.053Z,13.48
2023-01-29T03:23:11.814Z,13.15
2023-01-29T03:26:38.606Z,13.38
2023-01-29T03:30:01.177Z,11.98
2023-01-29T03:33:10.179Z,12.25
2023-01-29T03:36:22.153Z,11.55
2023-01-29T03:39:30.469Z,12.68
2023-01-29T03:42:35.938Z,9.15
2023-01-29T03:46:00.361Z,7.75
2023-01-29T03:49:08.375Z,16.40
2023-01-29T03:55:35.164Z,8.65
2023-01-29T03:58:41.275Z,14.75
2023-01-29T04:01:57.908Z,15.10
2023-01-29T04:05:08.972Z,9.98
2023-01-29T04:08:20.053Z,11.18
2023-01-29T04:11:24.773Z,10.65
2023-01-29T04:14:29.734Z,8.82
2023-01-29T04:17:37.890Z,10.35
2023-01-29T04:20:43.299Z,9.80
2023-01-29T04:23:46.116Z,8.60
2023-01-29T04:27:00.637Z,11.85
2023-01-29T04:30:38.229Z,12.73
2023-01-29T04:33:48.294Z,11.77
2023-01-29T04:37:11.908Z,8.55
2023-01-29T04:40:19.482Z,8.60
2023-01-29T04:43:30.740Z,10.63
2023-01-29T04:47:04.046Z,6.47
2023-01-29T04:50:29.460Z,10.77
2023-01-29T04:53:38.983Z,10.27
2023-01-29T04:56:51.890Z,8.13
2023-01-29T05:00:04.027Z,8.35
2023-01-29T05:03:09.741Z,5.28
2023-01-29T05:06:13.240Z,10.82
2023-01-29T05:09:17.568Z,5.97
2023-01-29T05:12:22.823Z,11.23
2023-01-29T05:15:31.607Z,10.75
2023-01-29T05:18:35.320Z,10.98
2023-01-29T05:21:41.169Z,9.30
2023-01-29T05:24:44.729Z,10.27
2023-01-29T05:28:16.247Z,11.25
2023-01-29T05:31:18.921Z,9.75
2023-01-29T05:34:21.872Z,9.27
2023-01-29T05:37:24.465Z,8.52
2023-01-29T05:40:27.683Z,8.02
2023-01-29T05:43:30.478Z,10.88
2023-01-29T05:46:33.442Z,9.05
2023-01-29T05:49:37.863Z,8.35
2023-01-29T05:52:41.497Z,6.43
2023-01-29T05:55:45.670Z,9.75
2023-01-29T05:58:48.644Z,9.65
2023-01-29T06:01:51.300Z,12.30
2023-01-29T06:04:54.232Z,6.90
2023-01-29T06:07:56.987Z,7.80
2023-01-29T06:11:00.359Z,6.97
2023-01-29T06:14:02.991Z,6.10
2023-01-29T06:17:05.920Z,6.10
2023-01-29T06:20:09.627Z,9.10
2023-01-29T06:23:12.530Z,7.53
2023-01-29T06:26:15.939Z,8.10
2023-01-29T06:29:18.859Z,6.70
2023-01-29T06:32:21.419Z,7.05
2023-01-29T06:35:25.352Z,7.40
2023-01-29T06:38:28.707Z,6.45
2023-01-29T06:41:31.761Z,5.22
2023-01-29T06:44:34.326Z,5.05
2023-01-29T06:47:37.652Z,5.78
2023-01-29T06:50:40.303Z,8.02
2023-01-29T06:53:45.872Z,12.13
2023-01-29T06:56:48.908Z,8.35
2023-01-29T06:59:51.777Z,10.80
2023-01-29T07:02:54.386Z,6.25
2023-01-29T07:05:57.287Z,8.00
2023-01-29T07:09:00.026Z,7.37
2023-01-29T07:12:04.612Z,12.23
2023-01-29T07:15:07.702Z,5.18
2023-01-29T07:18:13.843Z,8.77
2023-01-29T07:21:16.649Z,4.07
2023-01-29T07:24:19.822Z,8.18
2023-01-29T07:27:22.431Z,6.00
2023-01-29T07:30:25.301Z,5.35
2023-01-29T07:33:27.931Z,7.55
2023-01-29T07:36:30.914Z,10.30
2023-01-29T07:39:33.468Z,7.65
2023-01-29T07:42:37.331Z,7.80
2023-01-29T07:45:40.548Z,9.25
2023-01-29T07:48:43.511Z,6.32
2023-01-29T07:51:46.319Z,7.22
2023-01-29T07:54:49.126Z,5.82
2023-01-29T07:57:59.952Z,8.15
2023-01-29T08:01:09.437Z,4.68
2023-01-29T08:04:12.272Z,6.97
2023-01-29T08:07:15.025Z,5.68
2023-01-29T08:10:18.609Z,3.95
2023-01-29T08:13:21.670Z,6.37
2023-01-29T08:16:24.525Z,4.37
2023-01-29T08:19:27.351Z,6.00
2023-01-29T08:22:30.380Z,7.15
2023-01-29T08:25:33.923Z,6.85
2023-01-29T08:28:38.772Z,4.97
2023-01-29T08:31:41.640Z,4.90
2023-01-29T08:34:44.765Z,10.63
2023-01-29T08:37:59.431Z,8.07
2023-01-29T08:41:02.637Z,5.90
2023-01-29T08:44:05.494Z,8.57
2023-01-29T08:47:08.425Z,5.25
2023-01-29T08:50:11.693Z,5.75
2023-01-29T08:53:15.079Z,6.55
2023-01-29T08:56:17.996Z,5.15
2023-01-29T08:59:22.835Z,5.80
2023-01-29T09:02:25.771Z,7.53
2023-01-29T09:05:29.080Z,3.92
2023-01-29T09:08:31.717Z,5.82
2023-01-29T09:11:34.860Z,6.68
2023-01-29T09:14:37.476Z,4.60
2023-01-29T09:17:41.094Z,5.20
2023-01-29T09:20:44.006Z,7.97
2023-01-29T09:23:46.971Z,8.77
2023-01-29T09:26:50.288Z,4.65
2023-01-29T09:29:53.207Z,5.53
2023-01-29T09:32:55.935Z,3.65
2023-01-29T09:35:59.035Z,3.65
2023-01-29T09:39:01.658Z,6.62
2023-01-29T09:42:07.795Z,4.60
2023-01-29T09:45:29.864Z,3.58
2023-01-29T09:48:35.591Z,13.55
2023-01-29T09:51:43.450Z,7.47
2023-01-29T09:54:49.218Z,4.18
2023-01-29T09:58:00.845Z,5.00
2023-01-29T10:01:32.980Z,4.90
2023-01-29T10:04:44.955Z,4.53
2023-01-29T10:08:25.183Z,5.47
2023-01-29T10:12:01.818Z,3.87
2023-01-29T10:15:28.720Z,2.80
2023-01-29T10:18:54.900Z,5.60
2023-01-29T10:22:13.220Z,3.72
2023-01-29T10:25:19.532Z,5.97
2023-01-29T10:28:43.229Z,4.10
2023-01-29T10:31:52.377Z,5.03
2023-01-29T10:35:04.689Z,3.85
2023-01-29T10:38:44.696Z,4.75
2023-01-29T10:41:58.733Z,4.68
2023-01-29T10:45:43.518Z,4.12
2023-01-29T10:48:59.700Z,3.50
2023-01-29T10:52:30.471Z,3.90
2023-01-29T10:55:46.453Z,3.37
2023-01-29T10:58:54.284Z,3.17
2023-01-29T11:02:00.569Z,3.17
2023-01-29T11:05:03.608Z,3.22
2023-01-29T11:08:15.874Z,3.47
2023-01-29T11:11:22.333Z,4.35
2023-01-29T11:14:39.275Z,3.12
2023-01-29T11:18:06.975Z,3.03
2023-01-29T11:21:09.856Z,2.53
2023-01-29T11:24:17.542Z,3.75
2023-01-29T11:27:26.549Z,2.87
2023-01-29T11:30:35.664Z,4.75
2023-01-29T11:36:41.553Z,3.80
2023-01-29T11:39:47.124Z,2.70
2023-01-29T11:42:52.992Z,6.03
2023-01-29T11:46:05.211Z,3.05
2023-01-29T11:49:22.754Z,6.95
2023-01-29T11:52:38.328Z,3.87
2023-01-29T11:55:50.911Z,4.53
2023-01-29T11:58:55.862Z,3.70
2023-01-29T12:02:12.531Z,3.60
2023-01-29T12:05:22.126Z,3.33
2023-01-29T12:08:25.555Z,5.78
2023-01-29T12:11:33.979Z,5.05
2023-01-29T12:14:38.702Z,3.55
2023-01-29T12:17:45.849Z,5.20
2023-01-29T12:20:56.236Z,6.47
2023-01-29T12:24:11.478Z,7.12
2023-01-29T12:28:11.357Z,3.85
2023-01-29T12:31:29.311Z,3.00
2023-01-29T12:34:46.384Z,4.07
2023-01-29T12:38:01.033Z,4.70
2023-01-29T12:41:12.915Z,2.95
2023-01-29T12:44:20.617Z,3.17
2023-01-29T12:47:45.748Z,2.97
2023-01-29T12:50:51.622Z,2.60
2023-01-29T12:54:04.972Z,3.08
2023-01-29T12:57:18.631Z,2.95
2023-01-29T13:00:25.349Z,2.10
2023-01-29T13:03:55.465Z,3.55
2023-01-29T13:07:12.252Z,4.43
2023-01-29T13:10:21.130Z,2.42
2023-01-29T13:16:52.713Z,4.43
2023-01-29T13:20:00.654Z,3.55
2023-01-29T13:23:20.978Z,4.50
2023-01-29T13:26:24.467Z,3.50
2023-01-29T13:29:31.457Z,3.80
2023-01-29T13:32:36.414Z,4.30
2023-01-29T13:35:45.153Z,2.92
2023-01-29T13:39:03.506Z,5.53
2023-01-29T13:42:16.029Z,4.87
2023-01-29T13:45:45.478Z,3.83
2023-01-29T13:48:51.284Z,3.15
2023-01-29T13:51:54.439Z,2.58
2023-01-29T13:55:01.671Z,3.10
2023-01-29T13:58:06.394Z,3.30
2023-01-29T14:01:09.417Z,3.67
2023-01-29T14:04:30.947Z,2.45
2023-01-29T14:07:50.141Z,3.15
2023-01-29T14:11:17.874Z,4.20
2023-01-29T14:14:49.189Z,3.45
2023-01-29T14:18:18.855Z,2.92
2023-01-29T14:21:33.839Z,3.10
2023-01-29T14:24:37.022Z,4.25
2023-01-29T14:27:39.791Z,2.65
2023-01-29T14:30:48.956Z,2.25
2023-01-29T14:33:53.164Z,2.35
2023-01-29T14:37:01.018Z,2.55
2023-01-29T14:40:12.599Z,3.72
2023-01-29T14:43:21.835Z,2.50
2023-01-29T14:46:33.463Z,3.70
2023-01-29T14:49:52.631Z,3.03
2023-01-29T14:53:33.051Z,3.05
2023-01-29T14:57:05.150Z,1.90
2023-01-29T15:00:27.180Z,3.05
2023-01-29T15:03:39.834Z,2.97
2023-01-29T15:06:48.183Z,2.58
2023-01-29T15:10:13.565Z,3.30
2023-01-29T15:13:38.011Z,4.28
2023-01-29T15:16:40.961Z,6.40
2023-01-29T15:19:47.975Z,5.10
2023-01-29T15:22:51.139Z,6.07
2023-01-29T15:25:57.423Z,3.00
2023-01-29T15:29:04.566Z,3.70
2023-01-29T15:32:13.553Z,3.25
2023-01-29T15:35:37.617Z,2.22
2023-01-29T15:38:40.491Z,5.20
2023-01-29T15:41:45.089Z,4.60
2023-01-29T15:44:48.234Z,3.45
2023-01-29T15:47:53.799Z,2.65
2023-01-29T15:50:56.946Z,4.22
2023-01-29T15:54:06.174Z,3.15
2023-01-29T15:57:19.276Z,4.18
2023-01-29T16:00:26.138Z,7.85
2023-01-29T16:03:33.020Z,4.03
2023-01-29T16:06:38.794Z,4.25
2023-01-29T16:09:43.274Z,3.28
2023-01-29T16:12:51.315Z,3.10
2023-01-29T16:16:03.115Z,2.87
2023-01-29T16:19:21.120Z,3.75
2023-01-29T16:22:26.517Z,3.55
2023-01-29T16:25:31.380Z,3.58
2023-01-29T16:28:45.508Z,5.50
2023-01-29T16:31:53.847Z,6.37
2023-01-29T16:34:59.668Z,4.78
2023-01-29T16:38:27.068Z,5.20
2023-01-29T16:41:33.795Z,2.42
2023-01-29T16:44:39.191Z,4.05
2023-01-29T16:47:42.357Z,5.72
2023-01-29T16:50:54.732Z,4.93
2023-01-29T16:54:07.812Z,4.22
2023-01-29T16:57:25.995Z,4.12
2023-01-29T17:00:31.234Z,4.57
2023-01-29T17:03:35.333Z,4.90
2023-01-29T17:06:44.489Z,3.15
2023-01-29T17:10:00.027Z,3.60
2023-01-29T17:13:07.110Z,4.53
2023-01-29T17:16:20.663Z,2.80
2023-01-29T17:19:25.330Z,3.70
2023-01-29T17:22:28.206Z,3.12
2023-01-29T17:25:31.782Z,3.45
2023-01-29T17:28:35.191Z,5.90
2023-01-29T17:31:38.227Z,4.90
2023-01-29T17:34:41.187Z,7.03
2023-01-29T17:37:44.714Z,6.47
2023-01-29T17:40:52.981Z,4.70
2023-01-29T17:43:56.218Z,5.53
2023-01-29T17:46:59.837Z,7.22
2023-01-29T17:50:03.248Z,10.50
2023-01-29T17:53:06.247Z,4.15
2023-01-29T17:56:18.607Z,9.15
2023-01-29T17:59:24.707Z,4.72
2023-01-29T18:02:28.775Z,4.35
2023-01-29T18:05:33.270Z,3.97
2023-01-29T18:08:38.758Z,3.47
2023-01-29T18:11:42.874Z,3.90
2023-01-29T18:14:46.842Z,6.30
2023-01-29T18:17:52.896Z,4.10
2023-01-29T18:20:56.759Z,4.82
2023-01-29T18:23:59.875Z,3.28
2023-01-29T18:27:03.819Z,5.45
2023-01-29T18:30:07.601Z,5.93
2023-01-29T18:33:11.050Z,4.82
2023-01-29T18:36:14.139Z,5.30
2023-01-29T18:39:17.218Z,5.30
2023-01-29T18:42:20.057Z,2.75
2023-01-29T18:45:22.627Z,4.20
2023-01-29T18:48:26.420Z,4.35
2023-01-29T18:51:29.631Z,5.78
2023-01-29T18:54:32.824Z,5.15
2023-01-29T18:58:28.033Z,3.25
2023-01-29T19:00:59.004Z,3.20
2023-01-29T19:04:02.620Z,3.50
2023-01-29T19:07:05.804Z,3.35
2023-01-29T19:10:12.578Z,4.30
2023-01-29T19:13:15.761Z,5.35
2023-01-29T19:16:18.629Z,6.30
2023-01-29T19:19:22.905Z,3.87
2023-01-29T19:22:25.737Z,5.47
2023-01-29T19:25:29.057Z,5.53
2023-01-29T19:28:32.396Z,6.72
2023-01-29T19:31:35.824Z,4.28
2023-01-29T19:34:38.934Z,4.40
2023-01-29T19:37:42.148Z,3.10
2023-01-29T19:40:45.297Z,7.93
2023-01-29T19:43:48.619Z,5.87
2023-01-29T19:46:51.397Z,4.07
2023-01-29T19:49:54.191Z,3.90
2023-01-29T19:52:56.942Z,6.07
2023-01-29T19:56:01.718Z,3.17
2023-01-29T19:59:07.275Z,3.37
2023-01-29T20:02:10.706Z,2.95
2023-01-29T20:05:18.285Z,3.90
2023-01-29T20:08:22.379Z,4.50
2023-01-29T20:11:25.536Z,4.45
2023-01-29T20:14:28.829Z,7.97
2023-01-29T20:17:33.292Z,3.92
2023-01-29T20:20:39.723Z,4.25
2023-01-29T20:23:44.888Z,7.03
2023-01-29T20:26:49.495Z,4.00
2023-01-29T20:29:52.832Z,3.80
2023-01-29T20:32:58.652Z,3.97
2023-01-29T20:36:06.594Z,3.67
2023-01-29T20:39:09.873Z,9.23
2023-01-29T20:42:13.064Z,3.97
2023-01-29T20:45:16.107Z,3.55
2023-01-29T20:48:19.291Z,5.93
2023-01-29T20:51:22.203Z,5.37
2023-01-29T20:54:25.341Z,3.92
2023-01-29T20:57:28.251Z,4.20
2023-01-29T21:00:31.484Z,4.78
2023-01-29T21:03:34.873Z,4.22
2023-01-29T21:06:37.771Z,4.68
2023-01-29T21:09:40.701Z,4.80
2023-01-29T21:12:43.935Z,4.12
2023-01-29T21:15:46.695Z,6.90
2023-01-29T21:18:49.903Z,8.32
2023-01-29T21:21:52.418Z,4.32
2023-01-29T21:24:55.699Z,5.57
2023-01-29T21:27:59.886Z,5.45
2023-01-29T21:31:09.977Z,6.15
2023-01-29T21:34:12.706Z,4.87
2023-01-29T21:37:15.739Z,6.12
2023-01-29T21:40:18.707Z,5.28
2023-01-29T21:43:21.750Z,5.43
2023-01-29T21:46:24.677Z,3.78
2023-01-29T21:49:27.765Z,5.12
2023-01-29T21:52:30.928Z,5.03
2023-01-29T21:55:34.104Z,8.35
2023-01-29T21:58:36.761Z,5.15
2023-01-29T22:01:39.852Z,6.90
2023-01-29T22:04:43.351Z,4.05
2023-01-29T22:07:46.016Z,4.87
2023-01-29T22:10:49.044Z,5.80
2023-01-29T22:13:51.890Z,4.95
2023-01-29T22:16:54.806Z,6.95
2023-01-29T22:20:06.729Z,2.92
2023-01-29T22:23:09.734Z,4.62
2023-01-29T22:26:12.397Z,4.90
2023-01-29T22:29:17.079Z,3.25
2023-01-29T22:32:19.675Z,6.97
2023-01-29T22:35:22.684Z,4.80
2023-01-29T22:38:25.777Z,4.60
2023-01-29T22:41:28.813Z,4.78
2023-01-29T22:44:31.532Z,4.65
2023-01-29T22:47:34.399Z,4.35
2023-01-29T22:50:40.454Z,8.07
2023-01-29T22:53:49.136Z,5.20
2023-01-29T22:56:51.822Z,4.20
2023-01-29T22:59:54.664Z,4.62
2023-01-29T23:02:57.398Z,3.28
2023-01-29T23:06:01.236Z,4.80
2023-01-29T23:09:04.124Z,5.70
2023-01-29T23:12:07.915Z,7.28
2023-01-29T23:15:10.694Z,6.12
2023-01-29T23:18:13.539Z,5.62
2023-01-29T23:21:16.545Z,5.65
2023-01-29T23:24:19.531Z,5.55
2023-01-29T23:27:22.124Z,6.05
2023-01-29T23:30:25.050Z,3.30
2023-01-29T23:33:27.916Z,9.73
2023-01-29T23:36:30.872Z,9.50
2023-01-29T23:39:33.659Z,12.20
2023-01-29T23:42:36.645Z,6.50
2023-01-29T23:45:41.036Z,7.50
2023-01-29T23:48:44.134Z,4.70
2023-01-29T23:51:51.020Z,3.67
2023-01-29T23:54:53.901Z,8.18
2023-01-29T23:57:56.459Z,4.35
